Time;durP1;ratioP1;P1;durP2;ratioP2;P2;SDS_P1;SDS_P2;PMS_P1;PMS_P2;Temp;Humidity;BMP_temperature;BMP_pressure;BME280_temperature;BME280_humidity;BME280_pressure;Samples;Min_cycle;Max_cycle;Signal;HPM_P1;HPM_P2
2023/08/26 00:02:11;;;;;;;15.85;11.43;;;23.90;99.90;;;;;;5053311;28;20044;-52
2023/08/26 00:04:36;;;;;;;14.70;12.50;;;23.90;99.90;;;;;;5053013;28;20021;-54
2023/08/26 00:07:02;;;;;;;15.75;12.55;;;24.10;99.90;;;;;;5053086;28;20040;-52
2023/08/26 00:09:28;;;;;;;14.50;11.02;;;24.20;99.90;;;;;;5001895;28;20048;-55
2023/08/26 00:11:54;;;;;;;14.45;11.98;;;24.30;99.90;;;;;;5052766;28;20407;-54
2023/08/26 00:14:19;;;;;;;16.02;12.35;;;24.40;99.90;;;;;;5053377;28;20025;-55
2023/08/26 00:16:45;;;;;;;13.70;12.27;;;24.40;99.90;;;;;;5052877;28;20045;-52
2023/08/26 00:19:11;;;;;;;14.32;12.55;;;24.50;99.90;;;;;;5056232;28;20511;-54
2023/08/26 00:21:37;;;;;;;15.48;12.45;;;24.20;99.90;;;;;;5057107;28;20033;-54
2023/08/26 00:24:04;;;;;;;18.08;13.23;;;23.70;99.90;;;;;;5057346;28;20064;-55
2023/08/26 00:26:30;;;;;;;15.55;13.32;;;23.90;99.90;;;;;;5022043;28;20498;-54
2023/08/26 00:28:56;;;;;;;16.00;12.65;;;24.10;99.90;;;;;;5056732;28;20108;-52
2023/08/26 00:31:24;;;;;;;14.10;12.60;;;24.00;99.90;;;;;;5056739;28;20472;-54
2023/08/26 00:33:50;;;;;;;14.45;12.98;;;23.90;99.90;;;;;;5057153;28;20099;-52
2023/08/26 00:36:16;;;;;;;20.48;13.30;;;24.00;99.90;;;;;;5057117;28;20480;-53
2023/08/26 00:38:42;;;;;;;15.23;13.63;;;24.00;99.90;;;;;;5057138;28;20492;-54
2023/08/26 00:41:08;;;;;;;16.15;14.18;;;24.10;99.90;;;;;;5056597;28;20498;-53
2023/08/26 00:43:37;;;;;;;16.33;12.73;;;23.90;99.90;;;;;;5021778;28;20086;-54
2023/08/26 00:46:03;;;;;;;16.63;12.55;;;24.00;99.90;;;;;;5056598;28;20033;-55
2023/08/26 00:48:29;;;;;;;16.50;13.23;;;23.70;99.90;;;;;;5056448;28;20107;-54
2023/08/26 00:50:55;;;;;;;14.23;12.70;;;23.60;99.90;;;;;;5056390;28;20047;-53
2023/08/26 00:53:22;;;;;;;14.35;12.90;;;23.60;99.90;;;;;;5021746;28;20037;-52
2023/08/26 00:55:49;;;;;;;15.90;13.68;;;23.60;99.90;;;;;;5056286;28;20040;-53
2023/08/26 00:58:16;;;;;;;17.10;13.57;;;23.60;99.90;;;;;;5056391;28;20139;-52
2023/08/26 01:00:43;;;;;;;16.42;12.63;;;23.50;99.90;;;;;;5056400;28;20057;-55
2023/08/26 01:03:09;;;;;;;14.48;12.98;;;23.60;99.90;;;;;;5056655;28;20039;-53
2023/08/26 01:05:35;;;;;;;13.95;12.35;;;23.50;99.90;;;;;;5056351;28;20132;-57
2023/08/26 01:08:03;;;;;;;14.13;12.68;;;23.40;99.90;;;;;;5021424;28;20128;-56
2023/08/26 01:10:48;;;;;;;14.55;12.75;;;;;;;;;;5056284;28;20036;-55
2023/08/26 01:13:15;;;;;;;15.38;13.82;;;;;;;;;;5056027;28;20056;-55
2023/08/26 01:15:45;;;;;;;16.02;13.07;;;24.00;99.90;;;;;;5056533;28;20048;-53
2023/08/26 01:18:13;;;;;;;14.25;12.85;;;22.90;99.90;;;;;;5056331;28;20041;-57
2023/08/26 01:20:41;;;;;;;15.05;13.40;;;;;;;;;;5005427;28;20124;-55
2023/08/26 01:23:10;;;;;;;18.92;12.70;;;22.50;99.90;;;;;;5055932;28;20110;-56
2023/08/26 01:25:37;;;;;;;14.55;13.05;;;22.50;99.90;;;;;;5055971;28;20033;-53
2023/08/26 01:28:02;;;;;;;14.63;13.23;;;22.60;99.90;;;;;;5056325;28;20029;-55
2023/08/26 01:30:28;;;;;;;17.45;13.48;;;22.70;99.90;;;;;;5055835;28;20420;-55
2023/08/26 01:33:03;;;;;;;15.88;14.30;;;23.00;99.90;;;;;;5055798;28;20416;-56
2023/08/26 01:35:36;;;;;;;19.52;14.93;;;22.70;99.90;;;;;;5055699;28;20055;-54
2023/08/26 01:38:03;;;;;;;15.02;12.95;;;22.80;99.90;;;;;;5055913;28;20045;-54
2023/08/26 01:40:29;;;;;;;13.60;11.90;;;22.90;99.90;;;;;;5056034;28;20411;-56
2023/08/26 01:42:55;;;;;;;17.10;14.00;;;23.00;99.90;;;;;;5055407;28;20033;-51
2023/08/26 01:45:21;;;;;;;17.25;13.43;;;23.10;99.90;;;;;;5055619;28;20021;-56
2023/08/26 01:47:47;;;;;;;15.38;13.77;;;22.80;99.90;;;;;;5055935;28;20083;-54
2023/08/26 01:50:13;;;;;;;15.18;13.27;;;22.80;99.90;;;;;;5055632;28;20404;-56
2023/08/26 01:52:40;;;;;;;16.25;13.35;;;22.90;99.90;;;;;;5020475;28;20135;-55
2023/08/26 01:55:06;;;;;;;17.58;14.93;;;22.90;99.90;;;;;;5055628;28;20120;-56
2023/08/26 01:57:32;;;;;;;16.88;13.07;;;22.90;99.90;;;;;;5020361;28;20060;-55
2023/08/26 01:59:58;;;;;;;14.50;13.13;;;23.00;99.90;;;;;;5055670;28;20033;-54
2023/08/26 02:02:23;;;;;;;15.40;13.80;;;23.10;99.90;;;;;;5055380;28;20530;-54
2023/08/26 02:04:49;;;;;;;15.18;13.02;;;;;;;;;;5055242;28;20037;-54
2023/08/26 02:07:16;;;;;;;16.02;13.90;;;;;;;;;;5055127;28;20032;-53
2023/08/26 02:09:42;;;;;;;15.45;13.98;;;;;;;;;;5055082;28;20488;-53
2023/08/26 02:12:07;;;;;;;15.23;13.73;;;23.60;99.90;;;;;;5054834;28;20445;-54
2023/08/26 02:14:33;;;;;;;22.30;14.15;;;23.60;99.90;;;;;;5055108;28;20039;-53
2023/08/26 02:16:59;;;;;;;15.15;13.75;;;23.60;99.90;;;;;;5054787;28;20082;-53
2023/08/26 02:19:25;;;;;;;16.98;15.05;;;23.40;99.90;;;;;;5055048;28;20086;-52
2023/08/26 02:21:52;;;;;;;17.40;15.35;;;23.50;99.90;;;;;;5054966;28;20480;-54
2023/08/26 02:24:18;;;;;;;16.40;14.65;;;23.30;99.90;;;;;;5054816;28;20492;-54
2023/08/26 02:26:44;;;;;;;17.35;15.55;;;23.10;99.90;;;;;;5054628;28;20033;-56
2023/08/26 02:29:09;;;;;;;17.75;15.30;;;23.00;99.90;;;;;;5054890;28;20118;-54
2023/08/26 02:31:35;;;;;;;19.58;16.05;;;22.70;99.90;;;;;;5055132;28;20033;-55
2023/08/26 02:34:01;;;;;;;18.65;15.95;;;22.60;99.90;;;;;;5054640;28;20192;-56
2023/08/26 02:36:27;;;;;;;17.48;15.43;;;;;;;;;;5054433;28;20365;-52
2023/08/26 02:38:53;;;;;;;19.17;14.77;;;22.50;99.90;;;;;;5054446;28;20048;-57
2023/08/26 02:41:33;;;;;;;21.55;15.30;;;22.60;99.90;;;;;;5172458;23;20041;31
2023/08/26 02:43:59;;;;;;;19.15;15.10;;;22.80;99.90;;;;;;4993616;28;20046;-54
2023/08/26 02:46:25;;;;;;;18.02;14.57;;;22.90;99.90;;;;;;4995428;28;20476;-52
2023/08/26 02:48:51;;;;;;;16.70;15.00;;;23.10;99.90;;;;;;4995299;28;20026;-54
2023/08/26 02:51:16;;;;;;;16.60;14.95;;;23.40;99.90;;;;;;4994927;28;20037;-50
2023/08/26 02:53:42;;;;;;;19.02;15.43;;;23.50;99.90;;;;;;4995278;28;20363;-51
2023/08/26 02:56:08;;;;;;;17.10;15.30;;;23.40;99.90;;;;;;4994652;28;20026;-52
2023/08/26 02:58:34;;;;;;;16.65;14.95;;;;;;;;;;4976834;28;20035;-51
2023/08/26 03:01:01;;;;;;;16.75;14.93;;;;;;;;;;4944744;28;20129;-55
2023/08/26 03:03:27;;;;;;;18.80;15.40;;;23.20;99.90;;;;;;4993270;28;20104;-53
2023/08/26 03:05:57;;;;;;;17.65;15.63;;;23.70;99.90;;;;;;4977120;28;20073;-53
2023/08/26 03:08:23;;;;;;;19.98;16.13;;;23.40;99.90;;;;;;4994664;28;20144;-53
2023/08/26 03:11:00;;;;;;;19.85;15.02;;;23.10;99.90;;;;;;4994729;28;20470;-54
2023/08/26 03:13:26;;;;;;;17.08;15.27;;;23.30;99.90;;;;;;4994871;28;20050;-51
2023/08/26 03:15:52;;;;;;;17.42;14.25;;;23.40;99.90;;;;;;4994457;28;20019;-52
2023/08/26 03:18:17;;;;;;;19.52;15.60;;;23.30;99.90;;;;;;4994874;28;20098;-54
2023/08/26 03:20:43;;;;;;;17.75;15.85;;;23.30;99.90;;;;;;4994412;28;20466;-52
2023/08/26 03:23:09;;;;;;;18.35;15.18;;;23.30;99.90;;;;;;4994537;28;20058;-54
2023/08/26 03:25:38;;;;;;;16.92;15.13;;;23.40;99.90;;;;;;4994309;28;20058;-59
2023/08/26 03:28:07;;;;;;;18.75;15.27;;;23.50;99.90;;;;;;4994628;28;20037;-54
2023/08/26 03:30:33;;;;;;;17.15;14.85;;;23.50;99.90;;;;;;4960983;28;20057;-55
2023/08/26 03:32:59;;;;;;;19.88;15.52;;;23.60;99.90;;;;;;4994627;28;20027;-54
2023/08/26 03:35:24;;;;;;;20.42;16.45;;;23.50;99.90;;;;;;4994201;28;20026;-54
2023/08/26 03:37:50;;;;;;;18.00;15.35;;;23.30;99.90;;;;;;4960133;28;20046;-56
2023/08/26 03:40:16;;;;;;;17.27;15.20;;;;;;;;;;4994083;28;20076;-54
2023/08/26 03:42:42;;;;;;;17.85;15.85;;;;;;;;;;4976074;28;20077;-54
2023/08/26 03:45:09;;;;;;;20.50;15.57;;;23.30;99.90;;;;;;4960163;28;20039;-54
2023/08/26 03:47:34;;;;;;;18.48;16.27;;;23.10;99.90;;;;;;4960077;28;20030;-54
2023/08/26 03:50:00;;;;;;;18.83;16.77;;;;;;;;;;4993970;28;20492;-55
2023/08/26 03:52:26;;;;;;;18.58;16.50;;;22.50;99.90;;;;;;4993818;28;20037;-51
2023/08/26 03:54:52;;;;;;;19.38;16.80;;;22.70;99.90;;;;;;4994121;28;20026;-53
2023/08/26 03:57:18;;;;;;;19.27;16.55;;;22.90;99.90;;;;;;4993760;28;20061;-56
2023/08/26 03:59:44;;;;;;;24.13;16.27;;;;;;;;;;4994262;28;20048;-55
2023/08/26 04:02:10;;;;;;;22.65;16.48;;;23.10;99.90;;;;;;4994093;28;20030;-56
2023/08/26 04:04:35;;;;;;;18.65;15.38;;;23.30;99.90;;;;;;4993940;28;20633;-55
2023/08/26 04:07:01;;;;;;;18.08;16.23;;;23.50;99.90;;;;;;4994103;28;20501;-52
2023/08/26 04:09:27;;;;;;;18.05;15.75;;;23.50;99.90;;;;;;4975951;28;20043;-54
2023/08/26 04:11:53;;;;;;;18.63;15.00;;;23.60;99.90;;;;;;4975964;28;20038;-53
2023/08/26 04:14:18;;;;;;;20.80;16.35;;;23.40;99.90;;;;;;4993767;28;20134;-55
2023/08/26 04:16:44;;;;;;;17.92;16.13;;;23.00;99.90;;;;;;4993847;28;20081;-52
2023/08/26 04:19:10;;;;;;;20.00;15.65;;;23.20;99.90;;;;;;4993679;28;20102;-54
2023/08/26 04:21:35;;;;;;;16.85;15.02;;;23.30;99.90;;;;;;4993808;28;20114;-52
2023/08/26 04:24:01;;;;;;;23.65;16.23;;;23.50;99.90;;;;;;4993722;28;20029;-53
2023/08/26 04:26:27;;;;;;;24.70;17.15;;;23.60;99.90;;;;;;4993611;28;20054;-53
2023/08/26 04:28:53;;;;;;;30.30;18.27;;;23.80;99.90;;;;;;4993782;28;20076;-52
2023/08/26 04:31:19;;;;;;;21.38;17.65;;;23.70;99.90;;;;;;4959362;28;20034;-53
2023/08/26 04:33:45;;;;;;;22.63;17.73;;;;;;;;;;4993768;28;20041;-54
2023/08/26 04:36:11;;;;;;;19.15;16.15;;;24.00;99.90;;;;;;4993461;28;20031;-52
2023/08/26 04:38:37;;;;;;;18.50;15.85;;;;;;;;;;4993865;28;20026;-56
2023/08/26 04:41:03;;;;;;;23.70;16.27;;;23.20;99.90;;;;;;4993716;28;20037;-56
2023/08/26 04:43:29;;;;;;;20.23;15.90;;;;;;;;;;4993577;28;20489;-53
2023/08/26 04:45:55;;;;;;;18.92;15.90;;;23.10;99.90;;;;;;4993732;28;20069;-54
2023/08/26 04:48:21;;;;;;;19.50;14.93;;;23.40;99.90;;;;;;4993722;28;20532;-55
2023/08/26 04:50:47;;;;;;;17.90;15.40;;;23.50;99.90;;;;;;4993794;28;20031;-56
2023/08/26 04:53:12;;;;;;;16.90;15.15;;;23.20;99.90;;;;;;4993922;28;20057;-56
2023/08/26 04:55:38;;;;;;;17.00;15.15;;;23.30;99.90;;;;;;4993754;28;20027;-53
2023/08/26 04:58:07;;;;;;;16.20;14.60;;;23.60;99.90;;;;;;4993419;28;20045;-54
2023/08/26 05:00:33;;;;;;;18.27;14.95;;;23.80;99.90;;;;;;4993519;28;20093;-56
2023/08/26 05:02:59;;;;;;;21.20;14.70;;;24.00;99.90;;;;;;4993463;28;20035;-54
2023/08/26 05:05:25;;;;;;;20.42;17.00;;;24.20;99.90;;;;;;4996776;28;20057;-52
2023/08/26 05:07:51;;;;;;;17.42;14.75;;;;;;;;;;4997001;28;20018;-57
2023/08/26 05:10:17;;;;;;;15.40;13.80;;;;;;;;;;4996819;28;20026;-55
2023/08/26 05:12:43;;;;;;;17.45;15.65;;;24.60;99.90;;;;;;4996753;28;20026;-54
2023/08/26 05:15:09;;;;;;;16.73;14.88;;;24.80;99.90;;;;;;4997387;28;20531;-54
2023/08/26 05:17:35;;;;;;;16.08;14.07;;;25.00;99.90;;;;;;4996505;28;20049;-55
2023/08/26 05:20:00;;;;;;;25.40;15.50;;;25.00;99.90;;;;;;4978715;28;20137;-53
2023/08/26 05:22:27;;;;;;;19.50;15.52;;;;;;;;;;4996691;28;20477;-53
2023/08/26 05:24:52;;;;;;;16.15;14.63;;;25.30;99.90;;;;;;4978779;28;20113;-52
2023/08/26 05:27:19;;;;;;;14.73;13.18;;;25.30;99.90;;;;;;4978468;28;20442;-55
2023/08/26 05:29:46;;;;;;;16.13;14.38;;;;;;;;;;4996902;28;20030;-53
2023/08/26 05:32:12;;;;;;;16.42;14.55;;;;;;;;;;4978611;28;20045;-54
2023/08/26 05:34:38;;;;;;;19.38;15.23;;;;;;;;;;4996408;28;20034;-54
2023/08/26 05:37:05;;;;;;;21.83;13.95;;;;;;;;;;4996548;28;20129;-52
2023/08/26 05:39:31;;;;;;;16.92;13.75;;;;;;;;;;4962582;28;20042;-52
2023/08/26 05:41:57;;;;;;;17.35;14.35;;;25.90;99.90;;;;;;4996147;28;20059;-53
2023/08/26 05:44:22;;;;;;;22.08;14.77;;;25.90;99.90;;;;;;4996934;28;20037;-55
2023/08/26 05:46:48;;;;;;;21.08;15.20;;;26.00;99.90;;;;;;4996367;28;20026;-54
2023/08/26 05:49:14;;;;;;;19.88;15.63;;;;;;;;;;4996161;28;20366;-51
2023/08/26 05:51:40;;;;;;;17.27;14.20;;;26.20;99.90;;;;;;4994183;28;20585;-53
2023/08/26 05:54:06;;;;;;;15.82;14.13;;;26.30;99.90;;;;;;4996525;28;20026;-57
2023/08/26 05:56:31;;;;;;;20.08;15.23;;;26.30;99.90;;;;;;4996259;28;20113;-52
2023/08/26 05:58:57;;;;;;;23.52;15.45;;;26.00;99.90;;;;;;4996051;28;20470;-53
2023/08/26 06:01:23;;;;;;;20.75;15.85;;;26.20;99.90;;;;;;4995773;28;20397;-54
2023/08/26 06:03:49;;;;;;;16.27;14.63;;;;;;;;;;4996173;28;20035;-55
2023/08/26 06:06:15;;;;;;;16.40;14.52;;;26.50;99.90;;;;;;4996537;28;20490;-56
2023/08/26 06:08:41;;;;;;;17.00;14.57;;;;;;;;;;4995946;28;20110;-55
2023/08/26 06:11:06;;;;;;;21.70;14.43;;;26.70;99.90;;;;;;4996149;28;20085;-56
2023/08/26 06:13:32;;;;;;;19.77;13.45;;;26.80;99.90;;;;;;4995891;28;20410;-54
2023/08/26 06:15:58;;;;;;;23.00;14.07;;;27.00;99.90;;;;;;4995943;28;20113;-55
2023/08/26 06:18:25;;;;;;;16.90;13.75;;;;;;;;;;4995772;28;20042;-56
2023/08/26 06:20:51;;;;;;;23.98;15.40;;;;;;;;;;4995931;28;20026;-54
2023/08/26 06:23:18;;;;;;;21.55;14.02;;;27.30;99.90;;;;;;4996017;28;20034;-53
2023/08/26 06:25:54;;;;;;;16.52;13.85;;;27.40;99.90;;;;;;4995802;28;20366;-54
2023/08/26 06:28:20;;;;;;;17.00;13.88;;;27.50;99.90;;;;;;4996028;28;20476;-53
2023/08/26 06:30:47;;;;;;;15.30;13.70;;;;;;;;;;4993605;28;20052;-52
2023/08/26 06:33:13;;;;;;;14.63;13.10;;;27.90;99.90;;;;;;4995189;28;20042;-55
2023/08/26 06:35:39;;;;;;;14.70;12.82;;;27.90;99.90;;;;;;4995448;28;20187;-53
2023/08/26 06:38:06;;;;;;;15.48;13.90;;;27.90;99.90;;;;;;4995485;28;20042;-52
2023/08/26 06:40:31;;;;;;;16.25;13.40;;;28.10;99.90;;;;;;4977078;28;20038;-58
2023/08/26 06:42:58;;;;;;;15.75;13.70;;;28.30;99.90;;;;;;4995073;28;20488;-54
2023/08/26 06:45:24;;;;;;;17.88;14.32;;;28.30;99.90;;;;;;4995717;28;20041;-55
2023/08/26 06:47:49;;;;;;;16.55;13.32;;;28.40;99.90;;;;;;4995244;28;20030;-56
2023/08/26 06:50:15;;;;;;;16.42;12.18;;;28.50;99.90;;;;;;4995171;28;20045;-55
2023/08/26 06:52:41;;;;;;;15.27;12.60;;;;;;;;;;4976761;28;20084;-53
2023/08/26 06:55:09;;;;;;;14.52;12.80;;;28.60;99.90;;;;;;4994901;28;20022;-52
2023/08/26 06:57:38;;;;;;;15.63;12.18;;;28.70;99.90;;;;;;4961045;28;20413;-55
2023/08/26 07:00:05;;;;;;;16.40;13.18;;;;;;;;;;4976990;28;20370;-54
2023/08/26 07:02:31;;;;;;;14.50;12.68;;;;;;;;;;4976969;28;20042;-53
2023/08/26 07:04:57;;;;;;;14.70;12.55;;;29.20;99.90;;;;;;4993060;28;20444;-52
2023/08/26 07:07:22;;;;;;;16.77;11.48;;;29.00;99.90;;;;;;4994743;28;20104;-53
2023/08/26 07:09:48;;;;;;;17.35;11.85;;;28.90;99.90;;;;;;4994669;28;20381;-54
2023/08/26 07:12:14;;;;;;;15.68;11.20;;;29.00;99.90;;;;;;4994758;28;20038;-56
2023/08/26 07:14:40;;;;;;;12.35;10.88;;;29.20;99.90;;;;;;4994470;28;20031;-53
2023/08/26 07:17:06;;;;;;;17.42;12.10;;;29.20;99.90;;;;;;4994636;28;20045;-50
2023/08/26 07:19:32;;;;;;;14.73;11.48;;;;;;;;;;4994931;28;20466;-54
2023/08/26 07:21:58;;;;;;;12.32;11.07;;;;;;;;;;4994516;28;20068;-51
2023/08/26 07:24:24;;;;;;;14.85;11.15;;;29.60;99.90;;;;;;4992295;28;20034;-54
2023/08/26 07:26:50;;;;;;;13.15;11.15;;;29.90;99.90;;;;;;4991812;28;20437;-54
2023/08/26 07:29:15;;;;;;;12.77;10.48;;;29.90;99.90;;;;;;4976138;28;20118;-52
2023/08/26 07:31:42;;;;;;;17.27;11.52;;;29.60;99.90;;;;;;4991927;28;20510;-54
2023/08/26 07:34:08;;;;;;;15.52;11.10;;;29.80;99.90;;;;;;4992395;28;20042;-55
2023/08/26 07:36:34;;;;;;;14.80;10.85;;;30.00;99.90;;;;;;4959810;28;20124;-52
2023/08/26 07:39:00;;;;;;;14.48;11.98;;;30.30;99.90;;;;;;4992408;28;20049;-55
2023/08/26 07:41:26;;;;;;;12.38;11.18;;;30.30;99.90;;;;;;4992005;28;20042;-53
2023/08/26 07:43:52;;;;;;;15.32;11.90;;;;;;;;;;4992203;28;20514;-51
2023/08/26 07:46:22;;;;;;;16.27;13.07;;;30.80;99.90;;;;;;4992450;28;20033;-54
2023/08/26 07:48:48;;;;;;;18.00;14.15;;;;;;;;;;4991986;28;20030;-53
2023/08/26 07:51:14;;;;;;;17.25;13.45;;;;;;;;;;4992069;28;20046;-57
2023/08/26 07:53:40;;;;;;;16.23;13.35;;;;;;;;;;4975811;28;20039;-51
2023/08/26 07:56:07;;;;;;;16.92;13.85;;;;;;;;;;4993692;28;20045;-54
2023/08/26 07:58:33;;;;;;;15.40;13.15;;;31.40;99.90;;;;;;4993936;28;20034;-53
2023/08/26 08:00:58;;;;;;;14.75;13.20;;;31.60;99.90;;;;;;4993979;28;20038;-55
2023/08/26 08:03:24;;;;;;;14.90;12.98;;;31.70;99.90;;;;;;4994143;28;20482;-52
2023/08/26 08:05:50;;;;;;;12.48;11.23;;;32.00;99.90;;;;;;4994152;28;20026;-55
2023/08/26 08:08:15;;;;;;;17.90;12.18;;;32.20;99.90;;;;;;4975804;28;20108;-52
2023/08/26 08:10:42;;;;;;;16.45;11.98;;;;;;;;;;4993751;28;20058;-53
2023/08/26 08:13:09;;;;;;;14.65;12.32;;;;;;;;;;4993725;28;20376;-52
2023/08/26 08:15:35;;;;;;;14.73;10.98;;;32.90;99.90;;;;;;4994151;28;20042;-51
2023/08/26 08:18:02;;;;;;;13.65;11.80;;;33.20;99.90;;;;;;4993736;28;20084;-51
2023/08/26 08:20:30;;;;;;;14.35;11.20;;;33.00;99.90;;;;;;4993697;28;20030;-53
2023/08/26 08:22:57;;;;;;;13.60;10.85;;;;;;;;;;4993653;28;20059;-56
2023/08/26 08:25:24;;;;;;;12.43;9.85;;;33.20;99.90;;;;;;4992649;28;20385;-52
2023/08/26 08:27:50;;;;;;;13.30;10.68;;;;;;;;;;4994121;28;20069;-56
2023/08/26 08:30:16;;;;;;;13.20;10.02;;;;;;;;;;4993668;28;20109;-54
2023/08/26 08:32:42;;;;;;;19.40;11.07;;;33.90;99.90;;;;;;4993886;28;20089;-56
2023/08/26 08:35:08;;;;;;;12.63;10.18;;;34.00;99.90;;;;;;4993755;28;20473;-52
2023/08/26 08:37:34;;;;;;;11.52;10.32;;;;;;;;;;4975737;28;20057;-53
2023/08/26 08:40:00;;;;;;;14.98;11.80;;;34.70;99.90;;;;;;4996399;28;20027;-54
2023/08/26 08:42:26;;;;;;;13.77;10.23;;;;;;;;;;4997192;28;20089;-55
2023/08/26 08:44:52;;;;;;;10.40;9.35;;;;;;;;;;4997635;28;20525;-55
2023/08/26 08:47:18;;;;;;;12.20;8.85;;;35.30;99.90;;;;;;4963444;28;20038;-51
2023/08/26 08:49:45;;;;;;;11.18;8.70;;;35.20;99.90;;;;;;4997545;28;20370;-56
2023/08/26 08:52:11;;;;;;;11.60;9.05;;;35.10;99.90;;;;;;4997407;28;20022;-54
2023/08/26 08:54:37;;;;;;;11.25;9.88;;;35.00;99.90;;;;;;4963009;28;20128;-54
2023/08/26 08:57:04;;;;;;;11.20;9.70;;;;;;;;;;4997013;28;20088;-56
2023/08/26 08:59:34;;;;;;;10.45;9.55;;;35.70;99.90;;;;;;4997165;28;20490;-54
2023/08/26 09:02:00;;;;;;;12.55;9.80;;;35.80;99.90;;;;;;4996831;28;20054;-55
2023/08/26 09:04:26;;;;;;;12.13;9.77;;;36.00;99.90;;;;;;4997168;28;20466;-54
2023/08/26 09:06:53;;;;;;;13.68;9.73;;;;;;;;;;4996952;28;20034;-51
2023/08/26 09:09:20;;;;;;;11.68;9.70;;;36.40;99.90;;;;;;4997108;28;20113;-55
2023/08/26 09:11:47;;;;;;;11.52;9.18;;;36.10;99.90;;;;;;4997010;28;20031;-56
2023/08/26 09:14:13;;;;;;;10.10;9.10;;;36.30;99.90;;;;;;4996869;28;20359;-53
2023/08/26 09:16:40;;;;;;;13.13;9.50;;;;;;;;;;4996814;28;20062;-55
2023/08/26 09:19:12;;;;;;;12.23;9.30;;;36.60;99.90;;;;;;4997167;28;20434;-55
2023/08/26 09:21:42;;;;;;;12.27;9.93;;;;;;;;;;4996786;28;20042;-54
2023/08/26 09:24:14;;;;;;;15.52;9.82;;;36.70;99.90;;;;;;4996747;28;20050;-55
2023/08/26 09:26:56;;;;;;;11.35;10.02;;;37.00;99.90;;;;;;4996576;28;20022;-54
2023/08/26 09:29:22;;;;;;;10.45;9.38;;;36.70;99.50;;;;;;4996860;28;20032;-52
2023/08/26 09:31:56;;;;;;;12.80;9.43;;;36.80;99.80;;;;;;4962642;28;20038;-51
2023/08/26 09:34:26;;;;;;;11.32;9.18;;;36.60;99.50;;;;;;4996478;28;20450;-55
2023/08/26 09:36:52;;;;;;;10.47;9.43;;;36.60;99.30;;;;;;4996256;28;20030;-55
2023/08/26 09:39:18;;;;;;;10.20;9.20;;;;;;;;;;4996881;28;20076;-56
2023/08/26 09:41:46;;;;;;;10.77;9.68;;;37.40;99.90;;;;;;4996577;28;20425;-53
2023/08/26 09:44:13;;;;;;;10.60;9.50;;;37.50;98.50;;;;;;4996345;28;20500;-52
2023/08/26 09:46:40;;;;;;;16.42;10.90;;;37.70;99.50;;;;;;4962182;28;20073;-52
2023/08/26 09:49:06;;;;;;;10.73;8.70;;;37.60;98.50;;;;;;4996028;28;20022;-53
2023/08/26 09:51:32;;;;;;;12.02;10.10;;;37.80;98.50;;;;;;4996253;28;20030;-51
2023/08/26 09:54:00;;;;;;;10.25;9.25;;;37.70;98.50;;;;;;4996490;28;20478;-52
2023/08/26 09:56:27;;;;;;;10.32;9.32;;;37.60;98.00;;;;;;4961853;28;20116;-56
2023/08/26 09:58:54;;;;;;;12.10;8.73;;;37.50;98.10;;;;;;4961733;28;20122;-54
2023/08/26 10:01:21;;;;;;;11.40;10.18;;;37.90;98.40;;;;;;4996671;28;20475;-55
2023/08/26 10:04:04;;;;;;;11.38;9.27;;;38.20;97.90;;;;;;4977953;28;20069;-55
2023/08/26 10:06:34;;;;;;;11.95;9.65;;;38.00;97.40;;;;;;4995833;28;20022;-54
2023/08/26 10:09:07;;;;;;;11.00;9.90;;;;;;;;;;4995777;28;20037;-55
2023/08/26 10:11:36;;;;;;;10.15;9.15;;;;;;;;;;4995962;28;20027;-54
2023/08/26 10:14:04;;;;;;;10.98;9.88;;;;;;;;;;4996299;28;20033;-53
2023/08/26 10:16:31;;;;;;;11.07;9.10;;;38.50;99.50;;;;;;4995654;28;20074;-55
2023/08/26 10:18:58;;;;;;;10.60;9.15;;;38.70;99.90;;;;;;4995668;28;20023;-53
2023/08/26 10:21:25;;;;;;;10.95;9.43;;;;;;;;;;4995686;28;20054;-56
2023/08/26 10:23:51;;;;;;;11.32;9.05;;;;;;;;;;4995844;28;20035;-53
2023/08/26 10:26:20;;;;;;;12.48;9.50;;;;;;;;;;4995651;28;20031;-52
2023/08/26 10:28:48;;;;;;;10.02;8.75;;;;;;;;;;4995389;28;20037;-55
2023/08/26 10:31:16;;;;;;;12.32;10.00;;;;;;;;;;4995495;28;20041;-52
2023/08/26 10:33:59;;;;;;;11.07;9.43;;;;;;;;;;4996065;28;20137;-51
2023/08/26 10:36:26;;;;;;;10.32;8.80;;;39.20;99.90;;;;;;4995479;28;20103;-56
2023/08/26 10:38:56;;;;;;;10.63;8.38;;;;;;;;;;4995263;28;20114;-56
2023/08/26 10:41:22;;;;;;;13.93;8.57;;;;;;;;;;4995180;28;20054;-55
2023/08/26 10:43:56;;;;;;;11.32;8.50;;;39.50;94.10;;;;;;4995648;28;20050;-56
2023/08/26 10:46:34;;;;;;;14.82;9.32;;;39.80;95.00;;;;;;4995621;28;20089;-53
2023/08/26 10:49:04;;;;;;;9.82;8.82;;;;;;;;;;4995000;28;20022;-55
2023/08/26 10:51:30;;;;;;;9.30;8.35;;;;;;;;;;4994963;28;20045;-54
2023/08/26 10:54:04;;;;;;;10.57;9.43;;;39.60;99.90;;;;;;4993338;28;20034;-56
2023/08/26 10:56:39;;;;;;;9.70;8.18;;;39.90;99.90;;;;;;4995170;28;20121;-55
2023/08/26 10:59:06;;;;;;;9.80;8.55;;;;;;;;;;4994815;28;20034;-54
2023/08/26 11:01:35;;;;;;;11.10;8.60;;;39.50;98.70;;;;;;4994337;28;20381;-55
2023/08/26 11:04:04;;;;;;;11.00;7.97;;;39.50;95.80;;;;;;4994725;28;20030;-56
2023/08/26 11:06:37;;;;;;;9.88;8.68;;;39.50;96.00;;;;;;4995058;28;20030;-55
2023/08/26 11:09:03;;;;;;;9.23;8.13;;;39.60;95.80;;;;;;4994580;28;20034;-56
2023/08/26 11:11:29;;;;;;;8.75;7.72;;;39.40;93.90;;;;;;4994674;28;20034;-53
2023/08/26 11:13:55;;;;;;;9.40;8.32;;;39.30;93.40;;;;;;4960812;28;20398;-54
2023/08/26 11:16:21;;;;;;;11.23;8.10;;;39.30;93.60;;;;;;4960610;28;20046;-56
2023/08/26 11:18:47;;;;;;;10.75;8.55;;;39.60;93.70;;;;;;4994870;28;20034;-54
2023/08/26 11:21:14;;;;;;;10.73;7.50;;;39.20;93.60;;;;;;4994241;28;20026;-56
2023/08/26 11:23:41;;;;;;;10.45;8.32;;;39.70;93.40;;;;;;4994496;28;20034;-54
2023/08/26 11:26:07;;;;;;;10.60;8.10;;;39.70;93.20;;;;;;4994402;28;20121;-53
2023/08/26 11:28:33;;;;;;;10.15;8.93;;;39.90;93.90;;;;;;4994537;28;20066;-53
2023/08/26 11:31:00;;;;;;;9.55;8.32;;;;;;;;;;4994616;28;20035;-56
2023/08/26 11:33:28;;;;;;;8.02;7.22;;;40.30;92.50;;;;;;4994149;28;20121;-55
2023/08/26 11:35:55;;;;;;;11.25;7.93;;;40.30;93.00;;;;;;4994444;28;20034;-56
2023/08/26 11:38:22;;;;;;;10.88;8.65;;;40.40;92.30;;;;;;4994041;28;20034;-56
2023/08/26 11:40:47;;;;;;;10.18;7.20;;;40.10;92.20;;;;;;4994040;28;20089;-56
2023/08/26 11:43:16;;;;;;;10.38;7.85;;;39.60;92.10;;;;;;4993871;28;20058;-52
2023/08/26 11:45:48;;;;;;;9.55;8.55;;;39.10;92.40;;;;;;4994683;28;20042;-56
2023/08/26 11:48:14;;;;;;;12.45;8.32;;;39.20;92.20;;;;;;4994497;28;20066;-55
2023/08/26 11:50:41;;;;;;;9.93;7.07;;;39.60;92.70;;;;;;4994202;28;20085;-55
2023/08/26 11:53:07;;;;;;;13.27;7.90;;;39.80;92.20;;;;;;4994087;28;20072;-54
2023/08/26 11:55:34;;;;;;;10.95;7.22;;;39.80;92.30;;;;;;4992638;28;20042;-52
2023/08/26 11:58:00;;;;;;;10.23;7.65;;;39.60;91.90;;;;;;4994180;28;20457;-54
2023/08/26 12:00:27;;;;;;;9.50;7.95;;;39.90;92.20;;;;;;4994203;28;20073;-51
2023/08/26 12:02:59;;;;;;;13.32;8.27;;;40.10;91.70;;;;;;4994341;28;20058;-52
2023/08/26 12:05:24;;;;;;;11.32;7.57;;;40.40;92.10;;;;;;4994145;28;20030;-53
2023/08/26 12:07:56;;;;;;;12.90;8.15;;;40.30;91.60;;;;;;4994230;28;20389;-52
2023/08/26 12:10:23;;;;;;;8.40;7.60;;;40.50;91.90;;;;;;4993812;28;20031;-56
2023/08/26 12:12:49;;;;;;;8.80;7.50;;;40.70;91.80;;;;;;4994994;28;20101;-53
2023/08/26 12:15:17;;;;;;;8.60;7.25;;;41.00;91.40;;;;;;4997822;28;20449;-51
2023/08/26 12:17:54;;;;;;;9.70;7.60;;;41.10;91.20;;;;;;4998084;28;20097;-52
2023/08/26 12:20:28;;;;;;;11.40;7.22;;;41.00;91.20;;;;;;4997846;28;20374;-52
2023/08/26 12:22:58;;;;;;;8.45;7.03;;;40.90;91.20;;;;;;4964028;28;20034;-55
2023/08/26 12:25:28;;;;;;;7.97;7.18;;;41.30;91.30;;;;;;4997736;28;20034;-54
2023/08/26 12:28:03;;;;;;;8.23;6.60;;;41.50;90.80;;;;;;4997949;28;20096;-51
2023/08/26 12:30:29;;;;;;;8.98;7.50;;;41.00;90.60;;;;;;4997597;28;20030;-51
2023/08/26 12:32:55;;;;;;;10.60;7.00;;;40.80;90.60;;;;;;4963551;28;20114;-54
2023/08/26 12:35:21;;;;;;;12.07;7.00;;;40.40;90.60;;;;;;4998171;28;20026;-53
2023/08/26 12:37:46;;;;;;;8.43;6.68;;;40.40;91.00;;;;;;4997533;28;20497;-53
2023/08/26 12:40:12;;;;;;;9.57;6.82;;;40.40;90.40;;;;;;4961070;28;20035;-51
2023/08/26 12:42:40;;;;;;;11.15;7.30;;;40.50;90.40;;;;;;4997352;28;20089;-51
2023/08/26 12:45:06;;;;;;;9.25;7.45;;;40.50;90.70;;;;;;4997596;28;20035;-51
2023/08/26 12:47:32;;;;;;;9.60;6.50;;;40.70;90.20;;;;;;4997317;28;20084;-52
2023/08/26 12:49:58;;;;;;;8.25;6.43;;;40.70;89.90;;;;;;4997613;28;20409;-52
2023/08/26 12:52:26;;;;;;;9.73;6.38;;;41.30;90.80;;;;;;4956350;29;20043;-55